Weather at Oakdale Airport

Public forecast

Using degrees Fahrenheit for public forecast. Weather courtesy of forecast.io.

Closest aviation weather report (METAR) to Oakdale Airport

Closest report is Modesto City Co-Harry Sham Field, 10.7 nm (19.9 km) SW. Retrieved 2021/09/28 11:53 UTC (42 minutes ago):

KMOD 281153Z AUTO 32008KT 10SM CLR 14/09 A3003 RMK AO2 SLP167 T01390094 10183 20139 58001

Closest aviation forecast (TAF) to Oakdale Airport

Closest forecast is Modesto City Co-Harry Sham Field, 10.7 nm (19.9 km) SW. Retrieved 2021/09/28 12:25 UTC (10 minutes ago):

TAF KMOD 281120Z 2812/2912 33009KT P6SM SKC FM281600 32015G25KT P6SM SKC FM282100 32020G27KT P6SM SKC FM290300 29010KT P6SM SKC